sensor_id;sensor_type;location;lat;lon;timestamp;pressure;altitude;pressure_sealevel;temperature
27826;BMP280;15077;49.704;9.908;2023-06-26T00:01:29;98109.09;;;26.42
27826;BMP280;15077;49.704;9.908;2023-06-26T00:03:55;98103.56;;;26.37
27826;BMP280;15077;49.704;9.908;2023-06-26T00:06:24;98105.66;;;26.34
27826;BMP280;15077;49.704;9.908;2023-06-26T00:08:54;98102.72;;;26.29
27826;BMP280;15077;49.704;9.908;2023-06-26T00:11:22;98110.97;;;26.24
27826;BMP280;15077;49.704;9.908;2023-06-26T00:13:51;98105.25;;;26.21
27826;BMP280;15077;49.704;9.908;2023-06-26T00:16:18;98110.91;;;26.16
27826;BMP280;15077;49.704;9.908;2023-06-26T00:18:46;98110.41;;;26.13
27826;BMP280;15077;49.704;9.908;2023-06-26T00:21:14;98111.69;;;26.09
27826;BMP280;15077;49.704;9.908;2023-06-26T00:23:40;98115.75;;;26.03
27826;BMP280;15077;49.704;9.908;2023-06-26T00:26:06;98116.88;;;26.01
27826;BMP280;15077;49.704;9.908;2023-06-26T00:28:32;98100.81;;;25.97
27826;BMP280;15077;49.704;9.908;2023-06-26T00:30:58;98111.34;;;25.96
27826;BMP280;15077;49.704;9.908;2023-06-26T00:33:25;98115.38;;;25.90
27826;BMP280;15077;49.704;9.908;2023-06-26T00:35:51;98111.44;;;25.87
27826;BMP280;15077;49.704;9.908;2023-06-26T00:38:17;98116.16;;;25.83
27826;BMP280;15077;49.704;9.908;2023-06-26T00:40:43;98113.19;;;25.78
27826;BMP280;15077;49.704;9.908;2023-06-26T00:43:11;98105.06;;;25.73
27826;BMP280;15077;49.704;9.908;2023-06-26T00:45:37;98104.56;;;25.70
27826;BMP280;15077;49.704;9.908;2023-06-26T00:48:03;98105.84;;;25.66
27826;BMP280;15077;49.704;9.908;2023-06-26T00:50:29;98110.50;;;25.62
27826;BMP280;15077;49.704;9.908;2023-06-26T00:52:55;98105.63;;;25.59
27826;BMP280;15077;49.704;9.908;2023-06-26T00:55:27;98107.84;;;25.54
27826;BMP280;15077;49.704;9.908;2023-06-26T00:57:54;98107.19;;;25.52
27826;BMP280;15077;49.704;9.908;2023-06-26T01:00:25;98096.47;;;25.47
27826;BMP280;15077;49.704;9.908;2023-06-26T01:02:53;98106.47;;;25.42
27826;BMP280;15077;49.704;9.908;2023-06-26T01:05:20;98099.97;;;25.39
27826;BMP280;15077;49.704;9.908;2023-06-26T01:07:49;98101.25;;;25.35
27826;BMP280;15077;49.704;9.908;2023-06-26T01:10:19;98103.47;;;25.30
27826;BMP280;15077;49.704;9.908;2023-06-26T01:12:46;98103.75;;;25.27
27826;BMP280;15077;49.704;9.908;2023-06-26T01:15:15;98096.44;;;25.22
27826;BMP280;15077;49.704;9.908;2023-06-26T01:17:43;98095.13;;;25.18
27826;BMP280;15077;49.704;9.908;2023-06-26T01:20:12;98090.25;;;25.15
27826;BMP280;15077;49.704;9.908;2023-06-26T01:23:04;98091.00;;;25.08
27826;BMP280;15077;49.704;9.908;2023-06-26T01:28:44;98078.91;;;24.99
27826;BMP280;15077;49.704;9.908;2023-06-26T01:31:14;98087.66;;;24.98
27826;BMP280;15077;49.704;9.908;2023-06-26T01:33:43;98087.00;;;24.96
27826;BMP280;15077;49.704;9.908;2023-06-26T01:36:10;98088.91;;;24.94
27826;BMP280;15077;49.704;9.908;2023-06-26T01:38:37;98090.19;;;24.90
27826;BMP280;15077;49.704;9.908;2023-06-26T01:41:05;98095.66;;;24.87
27826;BMP280;15077;49.704;9.908;2023-06-26T01:47:03;98090.34;;;24.71
27826;BMP280;15077;49.704;9.908;2023-06-26T01:52:46;98086.72;;;24.64
27826;BMP280;15077;49.704;9.908;2023-06-26T01:55:20;98080.88;;;24.62
27826;BMP280;15077;49.704;9.908;2023-06-26T01:57:49;98081.16;;;24.59
27826;BMP280;15077;49.704;9.908;2023-06-26T02:00:24;98079.81;;;24.55
27826;BMP280;15077;49.704;9.908;2023-06-26T02:02:52;98086.94;;;24.53
27826;BMP280;15077;49.704;9.908;2023-06-26T02:05:19;98077.69;;;24.51
27826;BMP280;15077;49.704;9.908;2023-06-26T02:07:46;98073.75;;;24.47
27826;BMP280;15077;49.704;9.908;2023-06-26T02:10:14;98077.47;;;24.44
27826;BMP280;15077;49.704;9.908;2023-06-26T02:12:40;98070.94;;;24.41
27826;BMP280;15077;49.704;9.908;2023-06-26T02:15:07;98077.22;;;24.38
27826;BMP280;15077;49.704;9.908;2023-06-26T02:17:34;98073.13;;;24.36
27826;BMP280;15077;49.704;9.908;2023-06-26T02:20:01;98071.78;;;24.32
27826;BMP280;15077;49.704;9.908;2023-06-26T02:22:29;98065.13;;;24.29
27826;BMP280;15077;49.704;9.908;2023-06-26T02:24:59;98070.59;;;24.26
27826;BMP280;15077;49.704;9.908;2023-06-26T02:27:25;98063.25;;;24.22
27826;BMP280;15077;49.704;9.908;2023-06-26T02:29:52;98075.56;;;24.20
27826;BMP280;15077;49.704;9.908;2023-06-26T02:32:19;98071.63;;;24.16
27826;BMP280;15077;49.704;9.908;2023-06-26T02:34:44;98071.91;;;24.13
27826;BMP280;15077;49.704;9.908;2023-06-26T02:37:10;98068.66;;;24.11
27826;BMP280;15077;49.704;9.908;2023-06-26T02:39:36;98063.09;;;24.06
27826;BMP280;15077;49.704;9.908;2023-06-26T02:42:04;98072.78;;;24.04
27826;BMP280;15077;49.704;9.908;2023-06-26T02:44:30;98067.09;;;24.00
27826;BMP280;15077;49.704;9.908;2023-06-26T02:46:58;98071.72;;;23.97
27826;BMP280;15077;49.704;9.908;2023-06-26T02:49:24;98072.00;;;23.94
27826;BMP280;15077;49.704;9.908;2023-06-26T02:51:51;98074.09;;;23.91
27826;BMP280;15077;49.704;9.908;2023-06-26T02:54:18;98066.75;;;23.86
27826;BMP280;15077;49.704;9.908;2023-06-26T02:56:45;98062.00;;;23.82
27826;BMP280;15077;49.704;9.908;2023-06-26T02:59:12;98060.50;;;23.79
27826;BMP280;15077;49.704;9.908;2023-06-26T03:01:43;98057.41;;;23.76
27826;BMP280;15077;49.704;9.908;2023-06-26T03:04:09;98061.22;;;23.72
27826;BMP280;15077;49.704;9.908;2023-06-26T03:06:37;98062.31;;;23.69
27826;BMP280;15077;49.704;9.908;2023-06-26T03:09:03;98062.59;;;23.66
27826;BMP280;15077;49.704;9.908;2023-06-26T03:11:29;98067.22;;;23.63
27826;BMP280;15077;49.704;9.908;2023-06-26T03:13:56;98067.38;;;23.61
27826;BMP280;15077;49.704;9.908;2023-06-26T03:16:23;98070.25;;;23.58
27826;BMP280;15077;49.704;9.908;2023-06-26T03:18:49;98062.78;;;23.55
27826;BMP280;15077;49.704;9.908;2023-06-26T03:21:17;98053.66;;;23.51
27826;BMP280;15077;49.704;9.908;2023-06-26T03:23:45;98054.75;;;23.49
27826;BMP280;15077;49.704;9.908;2023-06-26T03:26:13;98055.72;;;23.48
27826;BMP280;15077;49.704;9.908;2023-06-26T03:28:40;98057.47;;;23.47
27826;BMP280;15077;49.704;9.908;2023-06-26T03:31:07;98062.25;;;23.42
27826;BMP280;15077;49.704;9.908;2023-06-26T03:33:35;98061.59;;;23.41
27826;BMP280;15077;49.704;9.908;2023-06-26T03:36:01;98054.28;;;23.36
27826;BMP280;15077;49.704;9.908;2023-06-26T03:38:27;98059.72;;;23.33
27826;BMP280;15077;49.704;9.908;2023-06-26T03:40:53;98063.25;;;23.32
27826;BMP280;15077;49.704;9.908;2023-06-26T03:43:20;98063.53;;;23.29
27826;BMP280;15077;49.704;9.908;2023-06-26T03:45:46;98063.00;;;23.26
27826;BMP280;15077;49.704;9.908;2023-06-26T03:48:12;98063.28;;;23.23
27826;BMP280;15077;49.704;9.908;2023-06-26T03:50:37;98066.81;;;23.22
27826;BMP280;15077;49.704;9.908;2023-06-26T03:53:03;98066.97;;;23.20
27826;BMP280;15077;49.704;9.908;2023-06-26T03:55:29;98061.94;;;23.19
27826;BMP280;15077;49.704;9.908;2023-06-26T03:57:54;98068.06;;;23.18
27826;BMP280;15077;49.704;9.908;2023-06-26T04:00:20;98069.03;;;23.17
27826;BMP280;15077;49.704;9.908;2023-06-26T04:02:46;98063.03;;;23.16
27826;BMP280;15077;49.704;9.908;2023-06-26T04:05:12;98069.16;;;23.15
27826;BMP280;15077;49.704;9.908;2023-06-26T04:07:38;98070.91;;;23.15
27826;BMP280;15077;49.704;9.908;2023-06-26T04:10:05;98066.16;;;23.20
27826;BMP280;15077;49.704;9.908;2023-06-26T04:12:31;98068.75;;;23.20
27826;BMP280;15077;49.704;9.908;2023-06-26T04:14:57;98062.88;;;23.18
27826;BMP280;15077;49.704;9.908;2023-06-26T04:17:22;98060.28;;;23.18
27826;BMP280;15077;49.704;9.908;2023-06-26T04:19:48;98060.28;;;23.18
27826;BMP280;15077;49.704;9.908;2023-06-26T04:22:14;98066.31;;;23.18
27826;BMP280;15077;49.704;9.908;2023-06-26T04:24:39;98060.16;;;23.19
27826;BMP280;15077;49.704;9.908;2023-06-26T04:27:05;98064.38;;;23.20
27826;BMP280;15077;49.704;9.908;2023-06-26T04:29:31;98061.66;;;23.22
27826;BMP280;15077;49.704;9.908;2023-06-26T04:31:57;98061.38;;;23.25
27826;BMP280;15077;49.704;9.908;2023-06-26T04:34:27;98058.66;;;23.26
27826;BMP280;15077;49.704;9.908;2023-06-26T04:36:54;98064.34;;;23.30
27826;BMP280;15077;49.704;9.908;2023-06-26T04:39:19;98059.03;;;23.31
27826;BMP280;15077;49.704;9.908;2023-06-26T04:41:45;98059.72;;;23.33
27826;BMP280;15077;49.704;9.908;2023-06-26T04:44:12;98059.44;;;23.36
27826;BMP280;15077;49.704;9.908;2023-06-26T04:46:38;98056.72;;;23.38
27826;BMP280;15077;49.704;9.908;2023-06-26T04:49:08;98052.19;;;23.40
27826;BMP280;15077;49.704;9.908;2023-06-26T04:51:34;98058.03;;;23.41
27826;BMP280;15077;49.704;9.908;2023-06-26T04:54:10;98062.13;;;23.44
27826;BMP280;15077;49.704;9.908;2023-06-26T04:56:36;98067.00;;;23.47
27826;BMP280;15077;49.704;9.908;2023-06-26T04:59:03;98066.72;;;23.50
27826;BMP280;15077;49.704;9.908;2023-06-26T05:01:29;98063.88;;;23.53
27826;BMP280;15077;49.704;9.908;2023-06-26T05:04:01;98067.81;;;23.57
27826;BMP280;15077;49.704;9.908;2023-06-26T05:06:27;98058.81;;;23.61
27826;BMP280;15077;49.704;9.908;2023-06-26T05:08:53;98064.25;;;23.67
27826;BMP280;15077;49.704;9.908;2023-06-26T05:11:19;98059.72;;;23.69
27826;BMP280;15077;49.704;9.908;2023-06-26T05:13:45;98054.13;;;23.74
27826;BMP280;15077;49.704;9.908;2023-06-26T05:16:10;98059.84;;;23.77
27826;BMP280;15077;49.704;9.908;2023-06-26T05:18:36;98055.19;;;23.81
27826;BMP280;15077;49.704;9.908;2023-06-26T05:21:03;98055.56;;;23.86
27826;BMP280;15077;49.704;9.908;2023-06-26T05:23:32;98064.53;;;23.91
27826;BMP280;15077;49.704;9.908;2023-06-26T05:25:58;98060.72;;;23.95
27826;BMP280;15077;49.704;9.908;2023-06-26T05:28:25;98066.25;;;24.00
27826;BMP280;15077;49.704;9.908;2023-06-26T05:30:54;98061.63;;;24.03
27826;BMP280;15077;49.704;9.908;2023-06-26T05:33:23;98062.13;;;24.07
27826;BMP280;15077;49.704;9.908;2023-06-26T05:35:52;98067.81;;;24.10
27826;BMP280;15077;49.704;9.908;2023-06-26T05:38:19;98069.97;;;24.15
27826;BMP280;15077;49.704;9.908;2023-06-26T05:40:45;98073.91;;;24.19
27826;BMP280;15077;49.704;9.908;2023-06-26T05:43:11;98065.84;;;24.22
27826;BMP280;15077;49.704;9.908;2023-06-26T05:45:37;98061.19;;;24.25
27826;BMP280;15077;49.704;9.908;2023-06-26T05:48:03;98069.50;;;24.29
27826;BMP280;15077;49.704;9.908;2023-06-26T05:50:30;98067.41;;;24.32
27826;BMP280;15077;49.704;9.908;2023-06-26T05:52:56;98070.56;;;24.36
27826;BMP280;15077;49.704;9.908;2023-06-26T05:55:23;98069.31;;;24.40
27826;BMP280;15077;49.704;9.908;2023-06-26T05:57:51;98060.13;;;24.45
27826;BMP280;15077;49.704;9.908;2023-06-26T06:00:17;98065.97;;;24.47
27826;BMP280;15077;49.704;9.908;2023-06-26T06:02:43;98058.06;;;24.48
27826;BMP280;15077;49.704;9.908;2023-06-26T06:05:09;98062.78;;;24.53
27826;BMP280;15077;49.704;9.908;2023-06-26T06:07:36;98065.78;;;24.58
27826;BMP280;15077;49.704;9.908;2023-06-26T06:10:03;98053.47;;;24.60
27826;BMP280;15077;49.704;9.908;2023-06-26T06:12:29;98062.44;;;24.65
27826;BMP280;15077;49.704;9.908;2023-06-26T06:14:56;98059.53;;;24.68
27826;BMP280;15077;49.704;9.908;2023-06-26T06:17:23;98059.91;;;24.73
27826;BMP280;15077;49.704;9.908;2023-06-26T06:19:49;98049.22;;;24.76
27826;BMP280;15077;49.704;9.908;2023-06-26T06:22:14;98047.97;;;24.80
27826;BMP280;15077;49.704;9.908;2023-06-26T06:24:42;98044.97;;;24.92
27826;BMP280;15077;49.704;9.908;2023-06-26T06:27:08;98044.38;;;24.98
27826;BMP280;15077;49.704;9.908;2023-06-26T06:29:33;98049.97;;;25.03
27826;BMP280;15077;49.704;9.908;2023-06-26T06:31:59;98049.50;;;25.08
27826;BMP280;15077;49.704;9.908;2023-06-26T06:34:25;98046.47;;;25.12
27826;BMP280;15077;49.704;9.908;2023-06-26T06:36:50;98059.31;;;25.22
27826;BMP280;15077;49.704;9.908;2023-06-26T06:39:16;98050.91;;;25.28
27826;BMP280;15077;49.704;9.908;2023-06-26T06:41:42;98050.16;;;25.35
27826;BMP280;15077;49.704;9.908;2023-06-26T06:44:08;98045.03;;;25.43
27826;BMP280;15077;49.704;9.908;2023-06-26T06:46:34;98041.81;;;25.49
27826;BMP280;15077;49.704;9.908;2023-06-26T06:49:00;98040.19;;;25.56
27826;BMP280;15077;49.704;9.908;2023-06-26T06:51:26;98049.81;;;25.63
27826;BMP280;15077;49.704;9.908;2023-06-26T06:53:51;98041.41;;;25.69
27826;BMP280;15077;49.704;9.908;2023-06-26T06:56:17;98045.03;;;25.76
27826;BMP280;15077;49.704;9.908;2023-06-26T06:58:43;98043.28;;;25.85
27826;BMP280;15077;49.704;9.908;2023-06-26T07:01:12;98056.44;;;25.91
27826;BMP280;15077;49.704;9.908;2023-06-26T07:03:39;98053.88;;;25.99
27826;BMP280;15077;49.704;9.908;2023-06-26T07:06:05;98050.50;;;26.06
27826;BMP280;15077;49.704;9.908;2023-06-26T07:08:31;98045.16;;;26.16
27826;BMP280;15077;49.704;9.908;2023-06-26T07:10:57;98048.75;;;26.23
27826;BMP280;15077;49.704;9.908;2023-06-26T07:13:23;98044.59;;;26.30
27826;BMP280;15077;49.704;9.908;2023-06-26T07:15:49;98051.91;;;26.42
27826;BMP280;15077;49.704;9.908;2023-06-26T07:18:15;98044.09;;;26.50
27826;BMP280;15077;49.704;9.908;2023-06-26T07:20:41;98046.91;;;26.56
27826;BMP280;15077;49.704;9.908;2023-06-26T07:23:08;98049.66;;;26.63
27826;BMP280;15077;49.704;9.908;2023-06-26T07:25:34;98049.81;;;26.69
27826;BMP280;15077;49.704;9.908;2023-06-26T07:28:00;98039.41;;;26.77
27826;BMP280;15077;49.704;9.908;2023-06-26T07:30:26;98045.59;;;26.84
27826;BMP280;15077;49.704;9.908;2023-06-26T07:32:51;98050.19;;;26.90
27826;BMP280;15077;49.704;9.908;2023-06-26T07:35:17;98037.16;;;26.98
27826;BMP280;15077;49.704;9.908;2023-06-26T07:37:43;98046.56;;;27.07
27826;BMP280;15077;49.704;9.908;2023-06-26T07:40:10;98042.00;;;27.17
27826;BMP280;15077;49.704;9.908;2023-06-26T07:42:36;98040.22;;;27.25
27826;BMP280;15077;49.704;9.908;2023-06-26T07:45:02;98037.75;;;27.32
27826;BMP280;15077;49.704;9.908;2023-06-26T07:47:36;98041.78;;;27.42
27826;BMP280;15077;49.704;9.908;2023-06-26T07:50:02;98046.81;;;27.51
27826;BMP280;15077;49.704;9.908;2023-06-26T07:52:28;98039.81;;;27.60
27826;BMP280;15077;49.704;9.908;2023-06-26T07:54:56;98031.81;;;27.69
27826;BMP280;15077;49.704;9.908;2023-06-26T07:57:22;98038.28;;;27.81
27826;BMP280;15077;49.704;9.908;2023-06-26T07:59:49;98037.25;;;27.90
27826;BMP280;15077;49.704;9.908;2023-06-26T08:02:16;98037.03;;;27.99
27826;BMP280;15077;49.704;9.908;2023-06-26T08:04:43;98034.06;;;28.10
27826;BMP280;15077;49.704;9.908;2023-06-26T08:07:09;98037.44;;;28.19
27826;BMP280;15077;49.704;9.908;2023-06-26T08:09:35;98029.41;;;28.28
27826;BMP280;15077;49.704;9.908;2023-06-26T08:12:01;98035.34;;;28.37
27826;BMP280;15077;49.704;9.908;2023-06-26T08:14:27;98025.53;;;28.46
27826;BMP280;15077;49.704;9.908;2023-06-26T08:16:53;98026.91;;;28.57
27826;BMP280;15077;49.704;9.908;2023-06-26T08:19:19;98025.53;;;28.69
27826;BMP280;15077;49.704;9.908;2023-06-26T08:21:46;98024.31;;;28.79
27826;BMP280;15077;49.704;9.908;2023-06-26T08:24:12;98024.69;;;28.90
27826;BMP280;15077;49.704;9.908;2023-06-26T08:26:38;98028.50;;;29.02
27826;BMP280;15077;49.704;9.908;2023-06-26T08:29:05;98029.50;;;29.16
27826;BMP280;15077;49.704;9.908;2023-06-26T08:31:37;98022.88;;;29.28
27826;BMP280;15077;49.704;9.908;2023-06-26T08:34:04;98023.25;;;29.39
27826;BMP280;15077;49.704;9.908;2023-06-26T08:36:30;98023.81;;;29.49
27826;BMP280;15077;49.704;9.908;2023-06-26T08:38:56;98019.56;;;29.62
27826;BMP280;15077;49.704;9.908;2023-06-26T08:41:22;98024.13;;;29.75
27826;BMP280;15077;49.704;9.908;2023-06-26T08:43:48;98024.34;;;29.88
27826;BMP280;15077;49.704;9.908;2023-06-26T08:46:17;98027.13;;;30.00
27826;BMP280;15077;49.704;9.908;2023-06-26T08:48:49;98020.41;;;30.12
27826;BMP280;15077;49.704;9.908;2023-06-26T08:51:24;98018.91;;;30.24
27826;BMP280;15077;49.704;9.908;2023-06-26T08:53:59;98017.28;;;30.38
27826;BMP280;15077;49.704;9.908;2023-06-26T08:56:36;98018.22;;;30.51
27826;BMP280;15077;49.704;9.908;2023-06-26T08:59:04;98014.56;;;30.66
27826;BMP280;15077;49.704;9.908;2023-06-26T09:01:32;98008.41;;;30.80
27826;BMP280;15077;49.704;9.908;2023-06-26T09:03:58;98007.56;;;30.94
27826;BMP280;15077;49.704;9.908;2023-06-26T09:06:24;98009.25;;;31.08
27826;BMP280;15077;49.704;9.908;2023-06-26T09:08:50;98007.53;;;31.21
27826;BMP280;15077;49.704;9.908;2023-06-26T09:11:15;98009.44;;;31.34
27826;BMP280;15077;49.704;9.908;2023-06-26T09:13:43;98017.19;;;31.48
27826;BMP280;15077;49.704;9.908;2023-06-26T09:16:09;98010.41;;;31.60
27826;BMP280;15077;49.704;9.908;2023-06-26T09:18:35;98011.66;;;31.70
27826;BMP280;15077;49.704;9.908;2023-06-26T09:21:09;98008.50;;;31.81
27826;BMP280;15077;49.704;9.908;2023-06-26T09:23:36;98014.19;;;31.91
27826;BMP280;15077;49.704;9.908;2023-06-26T09:26:04;98002.16;;;32.03
27826;BMP280;15077;49.704;9.908;2023-06-26T09:28:33;98000.97;;;32.18
27826;BMP280;15077;49.704;9.908;2023-06-26T09:31:08;97997.41;;;32.32
27826;BMP280;15077;49.704;9.908;2023-06-26T09:33:37;97999.03;;;32.46
27826;BMP280;15077;49.704;9.908;2023-06-26T09:36:08;98008.53;;;32.60
27826;BMP280;15077;49.704;9.908;2023-06-26T09:38:35;98002.91;;;32.69
27826;BMP280;15077;49.704;9.908;2023-06-26T09:41:03;98006.34;;;32.83
27826;BMP280;15077;49.704;9.908;2023-06-26T09:43:30;98005.13;;;32.91
27826;BMP280;15077;49.704;9.908;2023-06-26T09:45:57;98003.53;;;33.03
27826;BMP280;15077;49.704;9.908;2023-06-26T09:48:24;97998.66;;;33.13
27826;BMP280;15077;49.704;9.908;2023-06-26T09:50:49;98003.50;;;33.23
27826;BMP280;15077;49.704;9.908;2023-06-26T09:53:17;97989.75;;;33.34
27826;BMP280;15077;49.704;9.908;2023-06-26T09:55:44;97986.50;;;33.44
27826;BMP280;15077;49.704;9.908;2023-06-26T09:58:18;97992.13;;;33.54
27826;BMP280;15077;49.704;9.908;2023-06-26T10:00:44;97986.63;;;33.62
27826;BMP280;15077;49.704;9.908;2023-06-26T10:03:11;97976.72;;;33.71
27826;BMP280;15077;49.704;9.908;2023-06-26T10:05:40;97981.72;;;33.79
27826;BMP280;15077;49.704;9.908;2023-06-26T10:08:06;97968.94;;;33.88
27826;BMP280;15077;49.704;9.908;2023-06-26T10:10:36;97964.06;;;33.98
27826;BMP280;15077;49.704;9.908;2023-06-26T10:13:21;97965.03;;;34.04
27826;BMP280;15077;49.704;9.908;2023-06-26T10:15:50;97970.06;;;34.12
27826;BMP280;15077;49.704;9.908;2023-06-26T10:18:18;97963.94;;;34.18
27826;BMP280;15077;49.704;9.908;2023-06-26T10:20:48;97962.66;;;34.27
27826;BMP280;15077;49.704;9.908;2023-06-26T10:23:15;97966.22;;;34.38
27826;BMP280;15077;49.704;9.908;2023-06-26T10:25:46;97962.91;;;34.49
27826;BMP280;15077;49.704;9.908;2023-06-26T10:28:16;97950.31;;;34.58
27826;BMP280;15077;49.704;9.908;2023-06-26T10:30:44;97954.28;;;34.67
27826;BMP280;15077;49.704;9.908;2023-06-26T10:33:12;97952.78;;;34.77
27826;BMP280;15077;49.704;9.908;2023-06-26T10:35:43;97946.41;;;34.85
27826;BMP280;15077;49.704;9.908;2023-06-26T10:38:10;97951.97;;;34.77
27826;BMP280;15077;49.704;9.908;2023-06-26T10:40:47;97959.69;;;35.02
27826;BMP280;15077;49.704;9.908;2023-06-26T10:43:17;97960.19;;;35.11
27826;BMP280;15077;49.704;9.908;2023-06-26T10:45:48;97954.66;;;35.19
27826;BMP280;15077;49.704;9.908;2023-06-26T10:48:20;97949.06;;;35.27
27826;BMP280;15077;49.704;9.908;2023-06-26T10:50:50;97953.63;;;35.38
27826;BMP280;15077;49.704;9.908;2023-06-26T10:56:03;97955.91;;;35.52
27826;BMP280;15077;49.704;9.908;2023-06-26T10:58:43;97957.88;;;35.56
27826;BMP280;15077;49.704;9.908;2023-06-26T11:03:44;97954.22;;;35.57
27826;BMP280;15077;49.704;9.908;2023-06-26T11:06:20;97959.63;;;35.62
27826;BMP280;15077;49.704;9.908;2023-06-26T11:08:55;97952.66;;;35.68
27826;BMP280;15077;49.704;9.908;2023-06-26T11:14:31;97945.94;;;35.72
27826;BMP280;15077;49.704;9.908;2023-06-26T11:16:58;97951.56;;;35.75
27826;BMP280;15077;49.704;9.908;2023-06-26T11:19:27;97944.19;;;35.84
27826;BMP280;15077;49.704;9.908;2023-06-26T11:22:03;97937.78;;;35.91
27826;BMP280;15077;49.704;9.908;2023-06-26T11:24:30;97942.00;;;35.92
27826;BMP280;15077;49.704;9.908;2023-06-26T11:27:01;97952.56;;;35.92
27826;BMP280;15077;49.704;9.908;2023-06-26T11:29:27;97955.66;;;35.89
27826;BMP280;15077;49.704;9.908;2023-06-26T11:32:02;97955.22;;;35.92
27826;BMP280;15077;49.704;9.908;2023-06-26T11:34:31;97953.75;;;35.96
27826;BMP280;15077;49.704;9.908;2023-06-26T11:36:57;97957.31;;;36.01
27826;BMP280;15077;49.704;9.908;2023-06-26T11:39:23;97959.75;;;36.03
27826;BMP280;15077;49.704;9.908;2023-06-26T11:41:49;97965.38;;;36.06
27826;BMP280;15077;49.704;9.908;2023-06-26T11:44:15;97968.16;;;36.11
27826;BMP280;15077;49.704;9.908;2023-06-26T11:46:47;97969.28;;;36.15
27826;BMP280;15077;49.704;9.908;2023-06-26T11:49:16;97965.63;;;36.16
27826;BMP280;15077;49.704;9.908;2023-06-26T11:51:42;97970.13;;;36.16
27826;BMP280;15077;49.704;9.908;2023-06-26T11:54:08;97955.88;;;36.17
27826;BMP280;15077;49.704;9.908;2023-06-26T11:56:34;97969.66;;;36.19
27826;BMP280;15077;49.704;9.908;2023-06-26T12:01:42;97962.78;;;36.18
27826;BMP280;15077;49.704;9.908;2023-06-26T12:04:15;97965.75;;;36.21
27826;BMP280;15077;49.704;9.908;2023-06-26T12:06:46;97970.47;;;36.19
27826;BMP280;15077;49.704;9.908;2023-06-26T12:09:13;97962.81;;;36.00
27826;BMP280;15077;49.704;9.908;2023-06-26T12:11:45;97969.06;;;36.17
27826;BMP280;15077;49.704;9.908;2023-06-26T12:14:14;97979.06;;;36.15
27826;BMP280;15077;49.704;9.908;2023-06-26T12:16:40;97972.38;;;36.12
27826;BMP280;15077;49.704;9.908;2023-06-26T12:19:08;97970.78;;;36.11
27826;BMP280;15077;49.704;9.908;2023-06-26T12:21:43;97980.75;;;36.09
27826;BMP280;15077;49.704;9.908;2023-06-26T12:24:17;97980.41;;;36.06
27826;BMP280;15077;49.704;9.908;2023-06-26T12:26:52;97976.47;;;35.97
27826;BMP280;15077;49.704;9.908;2023-06-26T12:29:20;97970.47;;;35.90
27826;BMP280;15077;49.704;9.908;2023-06-26T12:31:51;97966.66;;;35.86
27826;BMP280;15077;49.704;9.908;2023-06-26T12:34:28;97979.25;;;35.84
27826;BMP280;15077;49.704;9.908;2023-06-26T12:37:00;97974.56;;;35.86
27826;BMP280;15077;49.704;9.908;2023-06-26T12:39:27;97986.50;;;35.88
27826;BMP280;15077;49.704;9.908;2023-06-26T12:42:00;97972.88;;;35.91
27826;BMP280;15077;49.704;9.908;2023-06-26T12:44:30;97973.09;;;35.90
27826;BMP280;15077;49.704;9.908;2023-06-26T12:47:01;97974.72;;;35.91
27826;BMP280;15077;49.704;9.908;2023-06-26T12:49:50;97961.81;;;35.83
27826;BMP280;15077;49.704;9.908;2023-06-26T12:52:17;97971.69;;;35.88
27826;BMP280;15077;49.704;9.908;2023-06-26T12:54:51;97968.50;;;35.86
27826;BMP280;15077;49.704;9.908;2023-06-26T12:57:17;97976.63;;;35.84
27826;BMP280;15077;49.704;9.908;2023-06-26T12:59:43;97967.69;;;35.85
27826;BMP280;15077;49.704;9.908;2023-06-26T13:02:10;97957.50;;;35.88
27826;BMP280;15077;49.704;9.908;2023-06-26T13:04:39;97962.31;;;35.91
27826;BMP280;15077;49.704;9.908;2023-06-26T13:07:08;97968.31;;;35.98
27826;BMP280;15077;49.704;9.908;2023-06-26T13:09:34;97965.81;;;36.03
27826;BMP280;15077;49.704;9.908;2023-06-26T13:12:01;97968.22;;;36.05
27826;BMP280;15077;49.704;9.908;2023-06-26T13:14:31;97965.00;;;36.03
27826;BMP280;15077;49.704;9.908;2023-06-26T13:16:56;97963.63;;;36.00
27826;BMP280;15077;49.704;9.908;2023-06-26T13:19:22;97978.53;;;35.95
27826;BMP280;15077;49.704;9.908;2023-06-26T13:21:48;97977.81;;;35.88
27826;BMP280;15077;49.704;9.908;2023-06-26T13:24:14;97980.69;;;35.80
27826;BMP280;15077;49.704;9.908;2023-06-26T13:26:40;97973.09;;;35.72
27826;BMP280;15077;49.704;9.908;2023-06-26T13:29:05;97972.38;;;35.65
27826;BMP280;15077;49.704;9.908;2023-06-26T13:31:32;97960.06;;;35.59
27826;BMP280;15077;49.704;9.908;2023-06-26T13:33:58;97962.72;;;35.59
27826;BMP280;15077;49.704;9.908;2023-06-26T13:36:25;97958.47;;;35.58
27826;BMP280;15077;49.704;9.908;2023-06-26T13:38:51;97967.97;;;35.59
27826;BMP280;15077;49.704;9.908;2023-06-26T13:41:24;97971.22;;;35.61
27826;BMP280;15077;49.704;9.908;2023-06-26T13:43:51;97974.31;;;35.58
27826;BMP280;15077;49.704;9.908;2023-06-26T13:46:17;97972.09;;;35.55
27826;BMP280;15077;49.704;9.908;2023-06-26T13:48:45;97968.88;;;35.53
27826;BMP280;15077;49.704;9.908;2023-06-26T13:51:10;97967.28;;;35.52
27826;BMP280;15077;49.704;9.908;2023-06-26T13:53:36;97964.03;;;35.50
27826;BMP280;15077;49.704;9.908;2023-06-26T13:56:02;97964.25;;;35.49
27826;BMP280;15077;49.704;9.908;2023-06-26T13:58:28;97970.34;;;35.49
27826;BMP280;15077;49.704;9.908;2023-06-26T14:00:58;97963.69;;;35.47
27826;BMP280;15077;49.704;9.908;2023-06-26T14:03:24;97967.94;;;35.48
27826;BMP280;15077;49.704;9.908;2023-06-26T14:05:49;97959.19;;;35.47
27826;BMP280;15077;49.704;9.908;2023-06-26T14:08:15;97966.88;;;35.49
27826;BMP280;15077;49.704;9.908;2023-06-26T14:10:41;97957.59;;;35.46
27826;BMP280;15077;49.704;9.908;2023-06-26T14:13:07;97954.38;;;35.44
27826;BMP280;15077;49.704;9.908;2023-06-26T14:15:34;97961.47;;;35.44
27826;BMP280;15077;49.704;9.908;2023-06-26T14:18:01;97954.81;;;35.41
27826;BMP280;15077;49.704;9.908;2023-06-26T14:20:29;97967.41;;;35.39
27826;BMP280;15077;49.704;9.908;2023-06-26T14:22:58;97960.16;;;35.35
27826;BMP280;15077;49.704;9.908;2023-06-26T14:25:24;97959.53;;;35.33
27826;BMP280;15077;49.704;9.908;2023-06-26T14:27:49;97962.38;;;35.32
27826;BMP280;15077;49.704;9.908;2023-06-26T14:30:15;97968.69;;;35.31
27826;BMP280;15077;49.704;9.908;2023-06-26T14:32:41;97965.84;;;35.32